sensor_id;sensor_type;location;lat;lon;timestamp;pressure;altitude;pressure_sealevel;temperature;humidity
47785;BME280;35233;55.686;37.848;2023-04-20T00:00:36;100479.94;;;19.67;28.31
47785;BME280;35233;55.686;37.848;2023-04-20T00:03:02;100477.16;;;19.68;28.24
47785;BME280;35233;55.686;37.848;2023-04-20T00:05:27;100474.50;;;19.68;28.47
47785;BME280;35233;55.686;37.848;2023-04-20T00:07:54;100473.63;;;19.68;28.37
47785;BME280;35233;55.686;37.848;2023-04-20T00:10:20;100479.78;;;19.70;28.47
47785;BME280;35233;55.686;37.848;2023-04-20T00:12:45;100468.44;;;19.65;28.26
47785;BME280;35233;55.686;37.848;2023-04-20T00:15:10;100476.31;;;19.68;28.18
47785;BME280;35233;55.686;37.848;2023-04-20T00:17:39;100483.41;;;19.69;28.34
47785;BME280;35233;55.686;37.848;2023-04-20T00:20:05;100484.28;;;19.70;28.37
47785;BME280;35233;55.686;37.848;2023-04-20T00:22:32;100472.03;;;19.64;28.34
47785;BME280;35233;55.686;37.848;2023-04-20T00:24:58;100483.50;;;19.67;28.60
47785;BME280;35233;55.686;37.848;2023-04-20T00:27:23;100470.22;;;19.64;28.50
47785;BME280;35233;55.686;37.848;2023-04-20T00:29:49;100470.28;;;19.63;28.39
47785;BME280;35233;55.686;37.848;2023-04-20T00:32:14;100466.84;;;19.61;28.54
47785;BME280;35233;55.686;37.848;2023-04-20T00:34:40;100471.19;;;19.63;28.57
47785;BME280;35233;55.686;37.848;2023-04-20T00:37:05;100472.84;;;19.66;28.43
47785;BME280;35233;55.686;37.848;2023-04-20T00:39:31;100464.31;;;19.58;28.35
47785;BME280;35233;55.686;37.848;2023-04-20T00:42:07;100465.19;;;19.58;28.38
47785;BME280;35233;55.686;37.848;2023-04-20T00:44:33;100463.44;;;19.57;28.25
47785;BME280;35233;55.686;37.848;2023-04-20T00:46:59;100455.66;;;19.53;28.42
47785;BME280;35233;55.686;37.848;2023-04-20T00:49:29;100458.34;;;19.53;28.45
47785;BME280;35233;55.686;37.848;2023-04-20T00:51:59;100456.56;;;19.52;28.58
47785;BME280;35233;55.686;37.848;2023-04-20T00:54:28;100438.31;;;19.42;28.32
47785;BME280;35233;55.686;37.848;2023-04-20T00:56:55;100445.09;;;19.50;28.45
47785;BME280;35233;55.686;37.848;2023-04-20T00:59:22;100445.09;;;19.50;28.23
47785;BME280;35233;55.686;37.848;2023-04-20T01:01:48;100443.50;;;19.45;28.44
47785;BME280;35233;55.686;37.848;2023-04-20T01:04:14;100442.75;;;19.43;28.11
47785;BME280;35233;55.686;37.848;2023-04-20T01:06:40;100444.69;;;19.40;28.50
47785;BME280;35233;55.686;37.848;2023-04-20T01:09:06;100444.53;;;19.43;28.47
47785;BME280;35233;55.686;37.848;2023-04-20T01:11:32;100437.38;;;19.43;28.65
47785;BME280;35233;55.686;37.848;2023-04-20T01:13:57;100445.31;;;19.45;28.65
47785;BME280;35233;55.686;37.848;2023-04-20T01:16:22;100440.91;;;19.44;28.39
47785;BME280;35233;55.686;37.848;2023-04-20T01:18:49;100437.44;;;19.42;28.69
47785;BME280;35233;55.686;37.848;2023-04-20T01:21:19;100439.25;;;19.41;28.73
47785;BME280;35233;55.686;37.848;2023-04-20T01:23:48;100434.88;;;19.40;28.73
47785;BME280;35233;55.686;37.848;2023-04-20T01:26:15;100441.94;;;19.41;28.39
47785;BME280;35233;55.686;37.848;2023-04-20T01:28:42;100435.03;;;19.37;28.49
47785;BME280;35233;55.686;37.848;2023-04-20T01:31:08;100432.41;;;19.36;28.34
47785;BME280;35233;55.686;37.848;2023-04-20T01:33:34;100427.06;;;19.36;28.61
47785;BME280;35233;55.686;37.848;2023-04-20T01:36:00;100431.72;;;19.32;28.59
47785;BME280;35233;55.686;37.848;2023-04-20T01:38:26;100431.78;;;19.31;28.63
47785;BME280;35233;55.686;37.848;2023-04-20T01:40:53;100424.53;;;19.33;28.47
47785;BME280;35233;55.686;37.848;2023-04-20T01:43:19;100421.00;;;19.32;28.56
47785;BME280;35233;55.686;37.848;2023-04-20T01:45:45;100421.22;;;19.28;28.56
47785;BME280;35233;55.686;37.848;2023-04-20T01:48:10;100414.22;;;19.25;28.60
47785;BME280;35233;55.686;37.848;2023-04-20T01:50:36;100422.19;;;19.27;28.56
47785;BME280;35233;55.686;37.848;2023-04-20T01:53:01;100426.69;;;19.26;28.56
47785;BME280;35233;55.686;37.848;2023-04-20T01:55:27;100418.53;;;19.28;28.55
47785;BME280;35233;55.686;37.848;2023-04-20T01:57:52;100414.16;;;19.27;28.61
47785;BME280;35233;55.686;37.848;2023-04-20T02:00:18;100413.19;;;19.28;28.74
47785;BME280;35233;55.686;37.848;2023-04-20T02:02:43;100408.84;;;19.25;28.42
47785;BME280;35233;55.686;37.848;2023-04-20T02:05:09;100408.09;;;19.23;28.82
47785;BME280;35233;55.686;37.848;2023-04-20T02:07:34;100410.75;;;19.23;28.51
47785;BME280;35233;55.686;37.848;2023-04-20T02:10:00;100408.41;;;19.17;28.41
47785;BME280;35233;55.686;37.848;2023-04-20T02:12:25;100401.47;;;19.13;29.02
47785;BME280;35233;55.686;37.848;2023-04-20T02:14:51;100403.06;;;19.17;28.59
47785;BME280;35233;55.686;37.848;2023-04-20T02:17:16;100408.47;;;19.15;28.44
47785;BME280;35233;55.686;37.848;2023-04-20T02:19:42;100402.56;;;19.09;28.49
47785;BME280;35233;55.686;37.848;2023-04-20T02:22:08;100412.00;;;19.16;28.53
47785;BME280;35233;55.686;37.848;2023-04-20T02:24:33;100412.16;;;19.13;28.48
47785;BME280;35233;55.686;37.848;2023-04-20T02:26:59;100408.53;;;19.14;28.30
47785;BME280;35233;55.686;37.848;2023-04-20T02:29:25;100415.72;;;19.13;28.13
47785;BME280;35233;55.686;37.848;2023-04-20T02:31:50;100406.66;;;19.16;28.59
47785;BME280;35233;55.686;37.848;2023-04-20T02:34:16;100414.69;;;19.16;28.74
47785;BME280;35233;55.686;37.848;2023-04-20T02:36:41;100411.84;;;19.19;28.51
47785;BME280;35233;55.686;37.848;2023-04-20T02:39:07;100414.47;;;19.20;28.86
47785;BME280;35233;55.686;37.848;2023-04-20T02:41:32;100406.66;;;19.16;28.60
47785;BME280;35233;55.686;37.848;2023-04-20T02:43:58;100406.50;;;19.19;28.51
47785;BME280;35233;55.686;37.848;2023-04-20T02:46:23;100416.81;;;19.27;28.40
47785;BME280;35233;55.686;37.848;2023-04-20T02:48:49;100400.06;;;19.23;28.35
47785;BME280;35233;55.686;37.848;2023-04-20T02:51:14;100411.63;;;19.23;28.06
47785;BME280;35233;55.686;37.848;2023-04-20T02:53:40;100398.41;;;19.20;28.24
47785;BME280;35233;55.686;37.848;2023-04-20T02:56:05;100404.34;;;19.26;28.49
47785;BME280;35233;55.686;37.848;2023-04-20T02:58:31;100399.63;;;19.31;28.20
47785;BME280;35233;55.686;37.848;2023-04-20T03:01:00;100407.66;;;19.31;28.41
47785;BME280;35233;55.686;37.848;2023-04-20T03:03:27;100407.59;;;19.32;28.13
47785;BME280;35233;55.686;37.848;2023-04-20T03:05:54;100400.50;;;19.31;27.78
47785;BME280;35233;55.686;37.848;2023-04-20T03:08:20;100398.78;;;19.30;27.99
47785;BME280;35233;55.686;37.848;2023-04-20T03:10:45;100386.34;;;19.29;27.99
47785;BME280;35233;55.686;37.848;2023-04-20T03:13:11;100387.72;;;19.36;28.01
47785;BME280;35233;55.686;37.848;2023-04-20T03:15:36;100385.22;;;19.33;27.91
47785;BME280;35233;55.686;37.848;2023-04-20T03:18:02;100389.38;;;19.39;27.95
47785;BME280;35233;55.686;37.848;2023-04-20T03:20:28;100390.25;;;19.39;28.01
47785;BME280;35233;55.686;37.848;2023-04-20T03:22:54;100386.38;;;19.45;27.75
47785;BME280;35233;55.686;37.848;2023-04-20T03:25:20;100388.19;;;19.44;27.78
47785;BME280;35233;55.686;37.848;2023-04-20T03:27:45;100393.31;;;19.49;27.82
47785;BME280;35233;55.686;37.848;2023-04-20T03:30:12;100379.66;;;19.54;27.74
47785;BME280;35233;55.686;37.848;2023-04-20T03:32:38;100381.31;;;19.56;27.85
47785;BME280;35233;55.686;37.848;2023-04-20T03:35:07;100376.81;;;19.57;27.95
47785;BME280;35233;55.686;37.848;2023-04-20T03:37:34;100386.34;;;19.62;28.23
47785;BME280;35233;55.686;37.848;2023-04-20T03:40:00;100382.84;;;19.60;28.01
47785;BME280;35233;55.686;37.848;2023-04-20T03:42:25;100384.44;;;19.64;27.93
47785;BME280;35233;55.686;37.848;2023-04-20T03:44:51;100387.78;;;19.70;28.35
47785;BME280;35233;55.686;37.848;2023-04-20T03:47:16;100380.66;;;19.68;28.16
47785;BME280;35233;55.686;37.848;2023-04-20T03:49:42;100391.94;;;19.75;28.43
47785;BME280;35233;55.686;37.848;2023-04-20T03:52:07;100393.41;;;19.81;29.08
47785;BME280;35233;55.686;37.848;2023-04-20T03:54:36;100388.31;;;19.76;28.65
47785;BME280;35233;55.686;37.848;2023-04-20T03:57:01;100391.78;;;19.78;28.95
47785;BME280;35233;55.686;37.848;2023-04-20T03:59:27;100381.13;;;19.77;28.49
47785;BME280;35233;55.686;37.848;2023-04-20T04:01:53;100388.19;;;19.78;28.55
47785;BME280;35233;55.686;37.848;2023-04-20T04:04:18;100380.09;;;19.79;28.88
47785;BME280;35233;55.686;37.848;2023-04-20T04:06:44;100371.88;;;19.82;28.52
47785;BME280;35233;55.686;37.848;2023-04-20T04:09:10;100382.59;;;19.82;28.25
47785;BME280;35233;55.686;37.848;2023-04-20T04:11:36;100371.88;;;19.82;27.99
47785;BME280;35233;55.686;37.848;2023-04-20T04:14:01;100375.41;;;19.83;28.01
47785;BME280;35233;55.686;37.848;2023-04-20T04:16:30;100372.41;;;19.89;28.05
47785;BME280;35233;55.686;37.848;2023-04-20T04:18:55;100370.50;;;19.91;27.71
47785;BME280;35233;55.686;37.848;2023-04-20T04:21:21;100371.19;;;19.95;28.02
47785;BME280;35233;55.686;37.848;2023-04-20T04:23:47;100364.56;;;20.02;28.13
47785;BME280;35233;55.686;37.848;2023-04-20T04:26:13;100370.59;;;20.05;27.97
47785;BME280;35233;55.686;37.848;2023-04-20T04:28:38;100359.59;;;20.10;28.01
47785;BME280;35233;55.686;37.848;2023-04-20T04:31:05;100371.56;;;20.20;27.99
47785;BME280;35233;55.686;37.848;2023-04-20T04:33:33;100361.94;;;20.32;27.77
47785;BME280;35233;55.686;37.848;2023-04-20T04:35:59;100361.03;;;20.93;27.09
47785;BME280;35233;55.686;37.848;2023-04-20T04:38:25;100362.31;;;21.02;27.07
47785;BME280;35233;55.686;37.848;2023-04-20T04:40:52;100367.53;;;20.59;27.87
47785;BME280;35233;55.686;37.848;2023-04-20T04:43:18;100363.03;;;20.44;28.04
47785;BME280;35233;55.686;37.848;2023-04-20T04:45:44;100358.03;;;20.38;27.68
47785;BME280;35233;55.686;37.848;2023-04-20T04:48:10;100361.41;;;20.41;27.81
47785;BME280;35233;55.686;37.848;2023-04-20T04:50:37;100359.31;;;20.46;28.21
47785;BME280;35233;55.686;37.848;2023-04-20T04:53:02;100355.59;;;20.49;28.15
47785;BME280;35233;55.686;37.848;2023-04-20T04:55:28;100352.81;;;20.50;28.09
47785;BME280;35233;55.686;37.848;2023-04-20T04:57:54;100344.88;;;20.49;28.26
47785;BME280;35233;55.686;37.848;2023-04-20T05:00:19;100358.56;;;20.60;28.33
47785;BME280;35233;55.686;37.848;2023-04-20T05:02:45;100352.03;;;20.64;28.13
47785;BME280;35233;55.686;37.848;2023-04-20T05:05:10;100343.41;;;21.77;27.77
47785;BME280;35233;55.686;37.848;2023-04-20T05:07:36;100344.09;;;22.22;26.87
47785;BME280;35233;55.686;37.848;2023-04-20T05:10:03;100340.19;;;22.40;26.75
47785;BME280;35233;55.686;37.848;2023-04-20T05:12:29;100350.44;;;22.48;26.21
47785;BME280;35233;55.686;37.848;2023-04-20T05:14:54;100348.09;;;22.56;26.34
47785;BME280;35233;55.686;37.848;2023-04-20T05:17:20;100328.97;;;22.60;26.56
47785;BME280;35233;55.686;37.848;2023-04-20T05:19:45;100332.75;;;22.71;26.22
47785;BME280;35233;55.686;37.848;2023-04-20T05:22:11;100330.38;;;22.79;26.27
47785;BME280;35233;55.686;37.848;2023-04-20T05:24:36;100338.34;;;22.80;26.27
47785;BME280;35233;55.686;37.848;2023-04-20T05:27:02;100336.44;;;22.82;26.29
47785;BME280;35233;55.686;37.848;2023-04-20T05:29:28;100344.41;;;22.84;26.33
47785;BME280;35233;55.686;37.848;2023-04-20T05:31:53;100337.06;;;22.86;26.29
47785;BME280;35233;55.686;37.848;2023-04-20T05:34:19;100335.91;;;22.90;26.21
47785;BME280;35233;55.686;37.848;2023-04-20T05:36:45;100331.16;;;22.94;26.04
47785;BME280;35233;55.686;37.848;2023-04-20T05:39:11;100322.25;;;23.06;25.79
47785;BME280;35233;55.686;37.848;2023-04-20T05:41:37;100331.44;;;23.42;25.48
47785;BME280;35233;55.686;37.848;2023-04-20T05:44:03;100328.53;;;23.19;26.20
47785;BME280;35233;55.686;37.848;2023-04-20T05:46:28;100324.53;;;23.12;26.39
47785;BME280;35233;55.686;37.848;2023-04-20T05:48:54;100328.09;;;23.13;26.78
47785;BME280;35233;55.686;37.848;2023-04-20T05:51:20;100323.44;;;23.15;26.67
47785;BME280;35233;55.686;37.848;2023-04-20T05:53:46;100319.81;;;23.16;26.52
47785;BME280;35233;55.686;37.848;2023-04-20T05:56:12;100315.91;;;23.20;26.29
47785;BME280;35233;55.686;37.848;2023-04-20T05:58:39;100322.69;;;23.25;26.45
47785;BME280;35233;55.686;37.848;2023-04-20T06:01:05;100327.97;;;23.27;26.26
47785;BME280;35233;55.686;37.848;2023-04-20T06:03:31;100322.41;;;23.30;26.47
47785;BME280;35233;55.686;37.848;2023-04-20T06:05:57;100324.09;;;23.31;26.37
47785;BME280;35233;55.686;37.848;2023-04-20T06:08:23;100326.81;;;23.31;26.20
47785;BME280;35233;55.686;37.848;2023-04-20T06:10:52;100327.56;;;23.33;26.38
47785;BME280;35233;55.686;37.848;2023-04-20T06:13:18;100330.56;;;23.41;26.51
47785;BME280;35233;55.686;37.848;2023-04-20T06:15:43;100324.44;;;23.39;26.49
47785;BME280;35233;55.686;37.848;2023-04-20T06:18:09;100326.16;;;23.40;26.42
47785;BME280;35233;55.686;37.848;2023-04-20T06:20:34;100321.75;;;23.39;26.19
47785;BME280;35233;55.686;37.848;2023-04-20T06:23:00;100321.53;;;23.42;26.55
47785;BME280;35233;55.686;37.848;2023-04-20T06:25:25;100323.78;;;23.48;26.22
47785;BME280;35233;55.686;37.848;2023-04-20T06:27:50;100321.06;;;23.48;26.56
47785;BME280;35233;55.686;37.848;2023-04-20T06:30:16;100324.00;;;23.45;26.13
47785;BME280;35233;55.686;37.848;2023-04-20T06:32:41;100318.16;;;23.52;26.25
47785;BME280;35233;55.686;37.848;2023-04-20T06:35:07;100316.22;;;23.54;26.35
47785;BME280;35233;55.686;37.848;2023-04-20T06:37:36;100312.53;;;23.55;26.41
47785;BME280;35233;55.686;37.848;2023-04-20T06:40:02;100318.38;;;23.48;26.59
47785;BME280;35233;55.686;37.848;2023-04-20T06:42:35;100314.16;;;23.57;26.13
47785;BME280;35233;55.686;37.848;2023-04-20T06:45:01;100317.50;;;23.61;26.28
47785;BME280;35233;55.686;37.848;2023-04-20T06:47:26;100307.91;;;23.57;26.40
47785;BME280;35233;55.686;37.848;2023-04-20T06:50:00;100315.56;;;23.63;26.12
47785;BME280;35233;55.686;37.848;2023-04-20T06:52:26;100303.91;;;23.62;26.37
47785;BME280;35233;55.686;37.848;2023-04-20T06:54:52;100303.69;;;23.65;26.53
47785;BME280;35233;55.686;37.848;2023-04-20T06:57:18;100297.63;;;23.62;26.59
47785;BME280;35233;55.686;37.848;2023-04-20T06:59:43;100298.16;;;23.67;26.42
47785;BME280;35233;55.686;37.848;2023-04-20T07:02:08;100303.16;;;23.60;26.47
47785;BME280;35233;55.686;37.848;2023-04-20T07:04:34;100288.69;;;23.61;26.58
47785;BME280;35233;55.686;37.848;2023-04-20T07:06:59;100302.06;;;23.63;26.48
47785;BME280;35233;55.686;37.848;2023-04-20T07:09:25;100292.00;;;23.65;26.75
47785;BME280;35233;55.686;37.848;2023-04-20T07:11:52;100287.50;;;23.65;26.69
47785;BME280;35233;55.686;37.848;2023-04-20T07:14:35;100286.63;;;23.65;26.67
47785;BME280;35233;55.686;37.848;2023-04-20T07:17:01;100290.63;;;23.72;26.73
47785;BME280;35233;55.686;37.848;2023-04-20T07:19:27;100278.19;;;23.69;26.43
47785;BME280;35233;55.686;37.848;2023-04-20T07:21:52;100279.09;;;23.70;26.81
47785;BME280;35233;55.686;37.848;2023-04-20T07:24:17;100287.19;;;23.70;26.73
47785;BME280;35233;55.686;37.848;2023-04-20T07:26:43;100279.84;;;23.72;26.74
47785;BME280;35233;55.686;37.848;2023-04-20T07:29:08;100280.59;;;23.74;26.66
47785;BME280;35233;55.686;37.848;2023-04-20T07:31:34;100278.75;;;23.75;26.54
47785;BME280;35233;55.686;37.848;2023-04-20T07:33:59;100282.31;;;23.75;26.67
47785;BME280;35233;55.686;37.848;2023-04-20T07:36:25;100271.75;;;23.72;26.32
47785;BME280;35233;55.686;37.848;2023-04-20T07:38:52;100280.59;;;23.74;26.44
47785;BME280;35233;55.686;37.848;2023-04-20T07:41:17;100271.94;;;23.82;26.17
47785;BME280;35233;55.686;37.848;2023-04-20T07:43:43;100270.53;;;23.76;26.18
47785;BME280;35233;55.686;37.848;2023-04-20T07:46:09;100263.59;;;23.85;26.07
47785;BME280;35233;55.686;37.848;2023-04-20T07:48:34;100261.97;;;23.95;26.12
47785;BME280;35233;55.686;37.848;2023-04-20T07:51:00;100261.09;;;23.94;26.19
47785;BME280;35233;55.686;37.848;2023-04-20T07:53:27;100262.38;;;24.02;26.53
47785;BME280;35233;55.686;37.848;2023-04-20T07:55:53;100257.81;;;24.02;26.69
47785;BME280;35233;55.686;37.848;2023-04-20T07:58:18;100263.75;;;24.07;26.68
47785;BME280;35233;55.686;37.848;2023-04-20T08:00:46;100265.69;;;24.05;26.75
47785;BME280;35233;55.686;37.848;2023-04-20T08:03:11;100259.19;;;24.08;26.50
47785;BME280;35233;55.686;37.848;2023-04-20T08:05:37;100261.66;;;24.11;26.57
47785;BME280;35233;55.686;37.848;2023-04-20T08:08:03;100252.38;;;24.15;26.21
47785;BME280;35233;55.686;37.848;2023-04-20T08:10:29;100241.44;;;24.16;26.28
47785;BME280;35233;55.686;37.848;2023-04-20T08:12:54;100238.94;;;24.26;26.11
47785;BME280;35233;55.686;37.848;2023-04-20T08:15:20;100244.09;;;24.29;26.32
47785;BME280;35233;55.686;37.848;2023-04-20T08:17:45;100240.06;;;24.35;26.04
47785;BME280;35233;55.686;37.848;2023-04-20T08:20:11;100227.94;;;24.40;26.21
47785;BME280;35233;55.686;37.848;2023-04-20T08:22:37;100248.50;;;24.54;26.13
47785;BME280;35233;55.686;37.848;2023-04-20T08:25:03;100240.06;;;24.59;25.75
47785;BME280;35233;55.686;37.848;2023-04-20T08:27:29;100239.56;;;24.65;25.91
47785;BME280;35233;55.686;37.848;2023-04-20T08:29:55;100239.56;;;24.65;26.01
47785;BME280;35233;55.686;37.848;2023-04-20T08:32:21;100241.19;;;24.68;25.91
47785;BME280;35233;55.686;37.848;2023-04-20T08:34:48;100244.50;;;24.71;26.04
47785;BME280;35233;55.686;37.848;2023-04-20T08:37:14;100232.69;;;24.72;26.01
47785;BME280;35233;55.686;37.848;2023-04-20T08:39:39;100224.84;;;24.69;25.78
47785;BME280;35233;55.686;37.848;2023-04-20T08:42:05;100218.84;;;24.77;25.58
47785;BME280;35233;55.686;37.848;2023-04-20T08:44:31;100222.06;;;24.82;25.29
47785;BME280;35233;55.686;37.848;2023-04-20T08:46:56;100225.13;;;24.89;25.40
47785;BME280;35233;55.686;37.848;2023-04-20T08:49:22;100216.78;;;24.92;25.42
47785;BME280;35233;55.686;37.848;2023-04-20T08:51:48;100223.50;;;24.86;25.86
47785;BME280;35233;55.686;37.848;2023-04-20T08:54:14;100216.75;;;24.80;25.64
47785;BME280;35233;55.686;37.848;2023-04-20T08:56:42;100210.50;;;24.80;25.35
47785;BME280;35233;55.686;37.848;2023-04-20T08:59:09;100208.88;;;24.77;25.73
47785;BME280;35233;55.686;37.848;2023-04-20T09:01:37;100213.09;;;24.81;25.88
47785;BME280;35233;55.686;37.848;2023-04-20T09:04:23;100208.03;;;24.77;25.84
47785;BME280;35233;55.686;37.848;2023-04-20T09:06:50;100218.72;;;24.78;25.75
47785;BME280;35233;55.686;37.848;2023-04-20T09:09:17;100204.00;;;24.82;25.30
47785;BME280;35233;55.686;37.848;2023-04-20T09:11:43;100203.75;;;24.85;25.48
47785;BME280;35233;55.686;37.848;2023-04-20T09:14:15;100201.53;;;24.91;25.29
47785;BME280;35233;55.686;37.848;2023-04-20T09:16:56;100199.09;;;24.88;25.72
47785;BME280;35233;55.686;37.848;2023-04-20T09:19:27;100202.28;;;24.81;25.68
47785;BME280;35233;55.686;37.848;2023-04-20T09:21:55;100207.31;;;24.86;25.27
47785;BME280;35233;55.686;37.848;2023-04-20T09:24:23;100206.22;;;25.00;25.41
47785;BME280;35233;55.686;37.848;2023-04-20T09:26:54;100200.91;;;25.10;25.04
47785;BME280;35233;55.686;37.848;2023-04-20T09:29:22;100184.94;;;25.06;24.99
47785;BME280;35233;55.686;37.848;2023-04-20T09:31:49;100192.34;;;25.16;25.14
47785;BME280;35233;55.686;37.848;2023-04-20T09:34:16;100190.38;;;25.18;24.79
47785;BME280;35233;55.686;37.848;2023-04-20T09:36:46;100192.22;;;25.17;25.12
47785;BME280;35233;55.686;37.848;2023-04-20T09:39:21;100185.22;;;25.15;24.82
47785;BME280;35233;55.686;37.848;2023-04-20T09:41:48;100187.28;;;25.11;25.28
47785;BME280;35233;55.686;37.848;2023-04-20T09:44:15;100185.56;;;25.10;25.38
47785;BME280;35233;55.686;37.848;2023-04-20T09:46:42;100181.75;;;25.13;24.92
47785;BME280;35233;55.686;37.848;2023-04-20T09:49:11;100181.75;;;25.13;25.07
47785;BME280;35233;55.686;37.848;2023-04-20T09:51:38;100187.28;;;25.11;25.00
47785;BME280;35233;55.686;37.848;2023-04-20T09:54:06;100177.13;;;25.15;24.78
47785;BME280;35233;55.686;37.848;2023-04-20T09:56:33;100167.03;;;25.17;24.62
47785;BME280;35233;55.686;37.848;2023-04-20T09:59:00;100170.00;;;25.25;24.87
47785;BME280;35233;55.686;37.848;2023-04-20T10:01:29;100158.03;;;25.27;24.51
47785;BME280;35233;55.686;37.848;2023-04-20T10:03:56;100165.19;;;25.28;24.59
47785;BME280;35233;55.686;37.848;2023-04-20T10:06:30;100157.59;;;25.22;25.03
47785;BME280;35233;55.686;37.848;2023-04-20T10:08:57;100154.63;;;25.25;24.77
47785;BME280;35233;55.686;37.848;2023-04-20T10:11:27;100156.59;;;25.23;24.69
47785;BME280;35233;55.686;37.848;2023-04-20T10:13:54;100157.59;;;25.22;24.86
47785;BME280;35233;55.686;37.848;2023-04-20T10:16:20;100147.47;;;25.24;24.60
47785;BME280;35233;55.686;37.848;2023-04-20T10:18:56;100155.34;;;25.27;24.80
47785;BME280;35233;55.686;37.848;2023-04-20T10:21:22;100153.78;;;25.25;24.63
47785;BME280;35233;55.686;37.848;2023-04-20T10:23:51;100147.28;;;25.16;24.47
47785;BME280;35233;55.686;37.848;2023-04-20T10:26:17;100148.97;;;25.17;24.90
47785;BME280;35233;55.686;37.848;2023-04-20T10:28:43;100153.53;;;25.17;24.79
47785;BME280;35233;55.686;37.848;2023-04-20T10:31:12;100139.25;;;25.15;24.41
47785;BME280;35233;55.686;37.848;2023-04-20T10:33:59;100144.03;;;25.11;24.95
47785;BME280;35233;55.686;37.848;2023-04-20T10:36:29;100137.78;;;25.11;25.01
47785;BME280;35233;55.686;37.848;2023-04-20T10:39:18;100140.59;;;25.09;24.90
47785;BME280;35233;55.686;37.848;2023-04-20T10:41:56;100141.34;;;25.11;25.13
47785;BME280;35233;55.686;37.848;2023-04-20T10:44:28;100144.88;;;25.12;25.07
47785;BME280;35233;55.686;37.848;2023-04-20T10:46:55;100140.34;;;25.12;24.78
47785;BME280;35233;55.686;37.848;2023-04-20T10:49:28;100131.97;;;25.04;24.96
47785;BME280;35233;55.686;37.848;2023-04-20T10:51:54;100134.84;;;25.02;25.06
47785;BME280;35233;55.686;37.848;2023-04-20T10:54:20;100137.53;;;25.02;25.07
47785;BME280;35233;55.686;37.848;2023-04-20T10:56:50;100136.69;;;25.02;24.67
47785;BME280;35233;55.686;37.848;2023-04-20T10:59:27;100133.22;;;25.00;25.22
47785;BME280;35233;55.686;37.848;2023-04-20T11:01:52;100132.63;;;24.96;25.14
47785;BME280;35233;55.686;37.848;2023-04-20T11:04:29;100129.03;;;24.96;25.20
47785;BME280;35233;55.686;37.848;2023-04-20T11:07:03;100124.63;;;24.95;25.03
47785;BME280;35233;55.686;37.848;2023-04-20T11:09:29;100120.06;;;24.95;25.32
47785;BME280;35233;55.686;37.848;2023-04-20T11:12:02;100122.06;;;24.93;25.24
47785;BME280;35233;55.686;37.848;2023-04-20T11:14:33;100103.50;;;24.89;25.19
47785;BME280;35233;55.686;37.848;2023-04-20T11:17:18;100113.31;;;25.01;25.00
47785;BME280;35233;55.686;37.848;2023-04-20T11:19:44;100110.59;;;25.12;25.07
47785;BME280;35233;55.686;37.848;2023-04-20T11:22:20;100098.94;;;25.12;24.79
47785;BME280;35233;55.686;37.848;2023-04-20T11:24:46;100102.00;;;25.18;24.78
47785;BME280;35233;55.686;37.848;2023-04-20T11:27:19;100097.84;;;25.14;24.97
47785;BME280;35233;55.686;37.848;2023-04-20T11:29:54;100092.53;;;25.13;24.81
47785;BME280;35233;55.686;37.848;2023-04-20T11:32:19;100091.66;;;25.12;24.65
47785;BME280;35233;55.686;37.848;2023-04-20T11:34:45;100090.06;;;25.10;24.81
47785;BME280;35233;55.686;37.848;2023-04-20T11:37:10;100091.06;;;25.08;24.47
47785;BME280;35233;55.686;37.848;2023-04-20T11:39:38;100081.97;;;25.10;24.79
47785;BME280;35233;55.686;37.848;2023-04-20T11:42:04;100086.78;;;25.06;24.42
47785;BME280;35233;55.686;37.848;2023-04-20T11:44:30;100081.63;;;25.03;24.77
47785;BME280;35233;55.686;37.848;2023-04-20T11:46:56;100077.81;;;25.05;24.45
47785;BME280;35233;55.686;37.848;2023-04-20T11:49:26;100066.00;;;24.95;24.42
47785;BME280;35233;55.686;37.848;2023-04-20T11:51:52;100066.41;;;24.91;24.79
47785;BME280;35233;55.686;37.848;2023-04-20T11:54:18;100064.81;;;24.88;24.53
47785;BME280;35233;55.686;37.848;2023-04-20T11:56:44;100059.16;;;24.91;24.85
47785;BME280;35233;55.686;37.848;2023-04-20T11:59:11;100052.91;;;24.91;24.98
47785;BME280;35233;55.686;37.848;2023-04-20T12:01:38;100056.44;;;24.91;24.90
47785;BME280;35233;55.686;37.848;2023-04-20T12:04:03;100060.63;;;24.84;24.91
47785;BME280;35233;55.686;37.848;2023-04-20T12:06:29;100052.78;;;24.81;24.55
47785;BME280;35233;55.686;37.848;2023-04-20T12:08:56;100057.06;;;24.83;24.88
47785;BME280;35233;55.686;37.848;2023-04-20T12:11:22;100058.31;;;24.79;24.67
47785;BME280;35233;55.686;37.848;2023-04-20T12:13:48;100045.16;;;24.75;24.53
47785;BME280;35233;55.686;37.848;2023-04-20T12:16:13;100039.91;;;24.73;24.72
47785;BME280;35233;55.686;37.848;2023-04-20T12:18:38;100051.91;;;24.69;24.68
47785;BME280;35233;55.686;37.848;2023-04-20T12:21:04;100031.41;;;24.67;24.86
47785;BME280;35233;55.686;37.848;2023-04-20T12:23:30;100029.09;;;24.62;24.83
47785;BME280;35233;55.686;37.848;2023-04-20T12:25:55;100029.22;;;24.60;24.79
47785;BME280;35233;55.686;37.848;2023-04-20T12:28:21;100024.81;;;24.59;24.88
47785;BME280;35233;55.686;37.848;2023-04-20T12:30:46;100030.56;;;24.55;24.94
47785;BME280;35233;55.686;37.848;2023-04-20T12:33:12;100024.91;;;24.58;24.79
47785;BME280;35233;55.686;37.848;2023-04-20T12:35:37;100026.16;;;24.54;24.87
47785;BME280;35233;55.686;37.848;2023-04-20T12:38:03;100023.44;;;24.54;24.73